Aviation Digital Data Service (ADDS)

Output produced by TAFs form (1807 UTC 18 August 2018)
found at http://aviationweather.gov/adds/tafs/
 
ELLX 181750Z 28007KT 240V320 CAVOK 23/08 Q1022 NOSIG
TAF ELLX 181700Z 1818/1924 28007KT CAVOK 
     TEMPO 1822/1906 VRB02KT